sensor_id;sensor_type;location;lat;lon;timestamp;P1;durP1;ratioP1;P2;durP2;ratioP2
38113;SDS011;23926;53.222;6.354;2023-03-08T00:01:35;2.15;;;1.90;;
38113;SDS011;23926;53.222;6.354;2023-03-08T00:04:00;4.47;;;2.40;;
38113;SDS011;23926;53.222;6.354;2023-03-08T00:06:26;4.00;;;2.83;;
38113;SDS011;23926;53.222;6.354;2023-03-08T00:08:56;4.13;;;2.53;;
38113;SDS011;23926;53.222;6.354;2023-03-08T00:11:22;5.72;;;2.33;;
38113;SDS011;23926;53.222;6.354;2023-03-08T00:13:48;2.80;;;2.10;;
38113;SDS011;23926;53.222;6.354;2023-03-08T00:16:14;5.07;;;2.65;;
38113;SDS011;23926;53.222;6.354;2023-03-08T00:18:39;6.57;;;2.30;;
38113;SDS011;23926;53.222;6.354;2023-03-08T00:21:06;5.15;;;2.20;;
38113;SDS011;23926;53.222;6.354;2023-03-08T00:23:34;9.23;;;2.40;;
38113;SDS011;23926;53.222;6.354;2023-03-08T00:25:59;3.83;;;1.73;;
38113;SDS011;23926;53.222;6.354;2023-03-08T00:28:25;4.30;;;2.03;;
38113;SDS011;23926;53.222;6.354;2023-03-08T00:31:10;6.95;;;2.45;;
38113;SDS011;23926;53.222;6.354;2023-03-08T00:33:36;3.97;;;1.90;;
38113;SDS011;23926;53.222;6.354;2023-03-08T00:36:03;5.13;;;2.15;;
38113;SDS011;23926;53.222;6.354;2023-03-08T00:38:40;3.80;;;2.03;;
38113;SDS011;23926;53.222;6.354;2023-03-08T00:41:06;4.30;;;2.20;;
38113;SDS011;23926;53.222;6.354;2023-03-08T00:43:32;3.70;;;2.00;;
38113;SDS011;23926;53.222;6.354;2023-03-08T00:45:58;5.00;;;2.33;;
38113;SDS011;23926;53.222;6.354;2023-03-08T00:48:23;9.38;;;2.35;;
38113;SDS011;23926;53.222;6.354;2023-03-08T00:50:49;5.97;;;2.20;;
38113;SDS011;23926;53.222;6.354;2023-03-08T00:53:15;6.00;;;2.25;;
38113;SDS011;23926;53.222;6.354;2023-03-08T00:56:01;6.72;;;2.40;;
38113;SDS011;23926;53.222;6.354;2023-03-08T00:58:27;3.80;;;2.00;;
38113;SDS011;23926;53.222;6.354;2023-03-08T01:00:53;8.45;;;2.35;;
38113;SDS011;23926;53.222;6.354;2023-03-08T01:03:19;4.20;;;1.80;;
38113;SDS011;23926;53.222;6.354;2023-03-08T01:05:47;2.75;;;1.50;;
38113;SDS011;23926;53.222;6.354;2023-03-08T01:08:17;2.78;;;1.40;;
38113;SDS011;23926;53.222;6.354;2023-03-08T01:10:50;5.75;;;1.70;;
38113;SDS011;23926;53.222;6.354;2023-03-08T01:13:17;4.82;;;1.92;;
38113;SDS011;23926;53.222;6.354;2023-03-08T01:15:44;2.13;;;1.40;;
38113;SDS011;23926;53.222;6.354;2023-03-08T01:18:10;3.83;;;1.38;;
38113;SDS011;23926;53.222;6.354;2023-03-08T01:20:35;5.63;;;1.55;;
38113;SDS011;23926;53.222;6.354;2023-03-08T01:23:01;3.10;;;1.30;;
38113;SDS011;23926;53.222;6.354;2023-03-08T01:25:26;4.97;;;1.50;;
38113;SDS011;23926;53.222;6.354;2023-03-08T01:27:52;2.65;;;1.50;;
38113;SDS011;23926;53.222;6.354;2023-03-08T01:30:17;1.05;;;1.05;;
38113;SDS011;23926;53.222;6.354;2023-03-08T01:32:43;4.18;;;1.45;;
38113;SDS011;23926;53.222;6.354;2023-03-08T01:35:08;2.83;;;1.40;;
38113;SDS011;23926;53.222;6.354;2023-03-08T01:37:34;3.45;;;1.27;;
38113;SDS011;23926;53.222;6.354;2023-03-08T01:40:00;4.75;;;1.17;;
38113;SDS011;23926;53.222;6.354;2023-03-08T01:42:26;1.58;;;0.90;;
38113;SDS011;23926;53.222;6.354;2023-03-08T01:45:59;3.13;;;1.23;;
38113;SDS011;23926;53.222;6.354;2023-03-08T01:48:02;4.15;;;1.70;;
38113;SDS011;23926;53.222;6.354;2023-03-08T01:50:27;1.42;;;0.95;;
38113;SDS011;23926;53.222;6.354;2023-03-08T01:52:53;5.40;;;1.17;;
38113;SDS011;23926;53.222;6.354;2023-03-08T01:55:22;3.08;;;1.38;;
38113;SDS011;23926;53.222;6.354;2023-03-08T01:57:48;1.80;;;1.02;;
38113;SDS011;23926;53.222;6.354;2023-03-08T02:00:18;4.47;;;0.90;;
38113;SDS011;23926;53.222;6.354;2023-03-08T02:03:10;2.45;;;1.30;;
38113;SDS011;23926;53.222;6.354;2023-03-08T02:05:36;4.07;;;1.10;;
38113;SDS011;23926;53.222;6.354;2023-03-08T02:08:04;5.47;;;1.20;;
38113;SDS011;23926;53.222;6.354;2023-03-08T02:10:29;4.18;;;1.30;;
38113;SDS011;23926;53.222;6.354;2023-03-08T02:12:55;1.98;;;0.80;;
38113;SDS011;23926;53.222;6.354;2023-03-08T02:15:20;1.60;;;0.80;;
38113;SDS011;23926;53.222;6.354;2023-03-08T02:17:46;2.08;;;0.95;;
38113;SDS011;23926;53.222;6.354;2023-03-08T02:20:32;5.20;;;0.90;;
38113;SDS011;23926;53.222;6.354;2023-03-08T02:23:06;3.42;;;0.98;;
38113;SDS011;23926;53.222;6.354;2023-03-08T02:25:39;2.90;;;1.00;;
38113;SDS011;23926;53.222;6.354;2023-03-08T02:28:05;2.08;;;1.13;;
38113;SDS011;23926;53.222;6.354;2023-03-08T02:30:32;6.07;;;1.33;;
38113;SDS011;23926;53.222;6.354;2023-03-08T02:33:00;5.40;;;1.45;;
38113;SDS011;23926;53.222;6.354;2023-03-08T02:35:25;4.68;;;1.15;;
38113;SDS011;23926;53.222;6.354;2023-03-08T02:37:51;7.57;;;1.42;;
38113;SDS011;23926;53.222;6.354;2023-03-08T02:40:16;1.90;;;0.85;;
38113;SDS011;23926;53.222;6.354;2023-03-08T02:42:42;3.13;;;1.35;;
38113;SDS011;23926;53.222;6.354;2023-03-08T02:45:08;6.82;;;1.23;;
38113;SDS011;23926;53.222;6.354;2023-03-08T02:47:33;2.40;;;1.48;;
38113;SDS011;23926;53.222;6.354;2023-03-08T02:49:59;2.42;;;1.20;;
38113;SDS011;23926;53.222;6.354;2023-03-08T02:52:24;2.10;;;1.40;;
38113;SDS011;23926;53.222;6.354;2023-03-08T02:54:50;3.30;;;1.25;;
38113;SDS011;23926;53.222;6.354;2023-03-08T02:57:15;1.38;;;1.20;;
38113;SDS011;23926;53.222;6.354;2023-03-08T02:59:41;3.75;;;1.00;;
38113;SDS011;23926;53.222;6.354;2023-03-08T03:02:06;0.85;;;0.70;;
38113;SDS011;23926;53.222;6.354;2023-03-08T03:04:32;1.13;;;0.95;;
38113;SDS011;23926;53.222;6.354;2023-03-08T03:06:58;3.28;;;1.23;;
38113;SDS011;23926;53.222;6.354;2023-03-08T03:09:24;0.90;;;0.90;;
38113;SDS011;23926;53.222;6.354;2023-03-08T03:11:50;2.28;;;1.05;;
38113;SDS011;23926;53.222;6.354;2023-03-08T03:14:16;5.93;;;1.45;;
38113;SDS011;23926;53.222;6.354;2023-03-08T03:16:42;3.38;;;0.98;;
38113;SDS011;23926;53.222;6.354;2023-03-08T03:19:07;6.10;;;2.00;;
38113;SDS011;23926;53.222;6.354;2023-03-08T03:21:33;3.78;;;1.45;;
38113;SDS011;23926;53.222;6.354;2023-03-08T03:23:58;2.25;;;1.48;;
38113;SDS011;23926;53.222;6.354;2023-03-08T03:26:24;4.32;;;1.80;;
38113;SDS011;23926;53.222;6.354;2023-03-08T03:28:50;2.58;;;1.40;;
38113;SDS011;23926;53.222;6.354;2023-03-08T03:31:19;3.50;;;1.38;;
38113;SDS011;23926;53.222;6.354;2023-03-08T03:33:46;4.28;;;1.60;;
38113;SDS011;23926;53.222;6.354;2023-03-08T03:36:13;3.47;;;1.90;;
38113;SDS011;23926;53.222;6.354;2023-03-08T03:38:40;2.20;;;1.70;;
38113;SDS011;23926;53.222;6.354;2023-03-08T03:41:07;3.92;;;1.42;;
38113;SDS011;23926;53.222;6.354;2023-03-08T03:43:38;2.00;;;1.33;;
38113;SDS011;23926;53.222;6.354;2023-03-08T03:46:08;5.10;;;1.60;;
38113;SDS011;23926;53.222;6.354;2023-03-08T03:48:36;3.42;;;1.25;;
38113;SDS011;23926;53.222;6.354;2023-03-08T03:51:03;4.75;;;1.50;;
38113;SDS011;23926;53.222;6.354;2023-03-08T03:53:34;3.40;;;1.50;;
38113;SDS011;23926;53.222;6.354;2023-03-08T03:56:06;4.45;;;1.20;;
38113;SDS011;23926;53.222;6.354;2023-03-08T03:58:40;4.72;;;1.42;;
38113;SDS011;23926;53.222;6.354;2023-03-08T04:01:10;3.00;;;1.20;;
38113;SDS011;23926;53.222;6.354;2023-03-08T04:03:46;3.35;;;1.08;;
38113;SDS011;23926;53.222;6.354;2023-03-08T04:06:13;2.92;;;1.27;;
38113;SDS011;23926;53.222;6.354;2023-03-08T04:08:43;2.47;;;1.10;;
38113;SDS011;23926;53.222;6.354;2023-03-08T04:11:13;2.95;;;1.08;;
38113;SDS011;23926;53.222;6.354;2023-03-08T04:13:41;4.55;;;1.10;;
38113;SDS011;23926;53.222;6.354;2023-03-08T04:16:11;0.98;;;0.98;;
38113;SDS011;23926;53.222;6.354;2023-03-08T04:18:38;3.17;;;1.10;;
38113;SDS011;23926;53.222;6.354;2023-03-08T04:21:03;4.60;;;1.48;;
38113;SDS011;23926;53.222;6.354;2023-03-08T04:23:29;7.72;;;1.60;;
38113;SDS011;23926;53.222;6.354;2023-03-08T04:25:54;4.38;;;1.38;;
38113;SDS011;23926;53.222;6.354;2023-03-08T04:28:20;5.18;;;1.70;;
38113;SDS011;23926;53.222;6.354;2023-03-08T04:30:45;3.33;;;1.17;;
38113;SDS011;23926;53.222;6.354;2023-03-08T04:33:11;2.80;;;1.45;;
38113;SDS011;23926;53.222;6.354;2023-03-08T04:35:36;3.70;;;1.30;;
38113;SDS011;23926;53.222;6.354;2023-03-08T04:38:01;4.25;;;1.20;;
38113;SDS011;23926;53.222;6.354;2023-03-08T04:40:27;4.32;;;1.13;;
38113;SDS011;23926;53.222;6.354;2023-03-08T04:42:54;2.75;;;1.33;;
38113;SDS011;23926;53.222;6.354;2023-03-08T04:45:19;4.18;;;1.42;;
38113;SDS011;23926;53.222;6.354;2023-03-08T04:47:45;4.35;;;1.48;;
38113;SDS011;23926;53.222;6.354;2023-03-08T04:50:10;2.38;;;1.02;;
38113;SDS011;23926;53.222;6.354;2023-03-08T04:52:36;3.58;;;1.30;;
38113;SDS011;23926;53.222;6.354;2023-03-08T04:55:01;2.25;;;1.20;;
38113;SDS011;23926;53.222;6.354;2023-03-08T04:57:27;0.65;;;0.60;;
38113;SDS011;23926;53.222;6.354;2023-03-08T04:59:52;3.00;;;1.40;;
38113;SDS011;23926;53.222;6.354;2023-03-08T05:02:18;3.70;;;1.25;;
38113;SDS011;23926;53.222;6.354;2023-03-08T05:04:43;1.88;;;1.00;;
38113;SDS011;23926;53.222;6.354;2023-03-08T05:07:09;3.10;;;1.00;;
38113;SDS011;23926;53.222;6.354;2023-03-08T05:09:34;1.83;;;1.08;;
38113;SDS011;23926;53.222;6.354;2023-03-08T05:12:00;5.10;;;1.40;;
38113;SDS011;23926;53.222;6.354;2023-03-08T05:14:25;4.57;;;1.30;;
38113;SDS011;23926;53.222;6.354;2023-03-08T05:16:53;6.22;;;1.35;;
38113;SDS011;23926;53.222;6.354;2023-03-08T05:19:20;4.03;;;1.17;;
38113;SDS011;23926;53.222;6.354;2023-03-08T05:21:45;1.13;;;0.88;;
38113;SDS011;23926;53.222;6.354;2023-03-08T05:24:10;4.22;;;1.40;;
38113;SDS011;23926;53.222;6.354;2023-03-08T05:26:36;4.15;;;1.17;;
38113;SDS011;23926;53.222;6.354;2023-03-08T05:29:02;2.95;;;1.63;;
38113;SDS011;23926;53.222;6.354;2023-03-08T05:31:30;4.40;;;1.40;;
38113;SDS011;23926;53.222;6.354;2023-03-08T05:33:56;2.75;;;1.08;;
38113;SDS011;23926;53.222;6.354;2023-03-08T05:36:21;4.53;;;1.63;;
38113;SDS011;23926;53.222;6.354;2023-03-08T05:38:47;3.40;;;1.20;;
38113;SDS011;23926;53.222;6.354;2023-03-08T05:41:17;4.40;;;1.60;;
38113;SDS011;23926;53.222;6.354;2023-03-08T05:43:43;3.83;;;1.20;;
38113;SDS011;23926;53.222;6.354;2023-03-08T05:46:17;4.82;;;1.35;;
38113;SDS011;23926;53.222;6.354;2023-03-08T05:48:44;3.08;;;1.20;;
38113;SDS011;23926;53.222;6.354;2023-03-08T05:51:13;4.07;;;1.50;;
38113;SDS011;23926;53.222;6.354;2023-03-08T05:53:40;2.17;;;1.00;;
38113;SDS011;23926;53.222;6.354;2023-03-08T05:56:24;2.00;;;0.98;;
38113;SDS011;23926;53.222;6.354;2023-03-08T05:58:50;1.33;;;0.93;;
38113;SDS011;23926;53.222;6.354;2023-03-08T06:01:20;2.88;;;1.38;;
38113;SDS011;23926;53.222;6.354;2023-03-08T06:03:48;1.27;;;0.80;;
38113;SDS011;23926;53.222;6.354;2023-03-08T06:06:16;4.05;;;1.38;;
38113;SDS011;23926;53.222;6.354;2023-03-08T06:08:42;3.70;;;1.60;;
38113;SDS011;23926;53.222;6.354;2023-03-08T06:11:08;3.13;;;1.20;;
38113;SDS011;23926;53.222;6.354;2023-03-08T06:13:34;2.58;;;1.17;;
38113;SDS011;23926;53.222;6.354;2023-03-08T06:16:00;2.83;;;1.27;;
38113;SDS011;23926;53.222;6.354;2023-03-08T06:18:26;5.80;;;1.23;;
38113;SDS011;23926;53.222;6.354;2023-03-08T06:21:00;2.42;;;1.50;;
38113;SDS011;23926;53.222;6.354;2023-03-08T06:23:28;6.70;;;2.00;;
38113;SDS011;23926;53.222;6.354;2023-03-08T06:25:54;5.50;;;1.67;;
38113;SDS011;23926;53.222;6.354;2023-03-08T06:28:20;2.97;;;1.92;;
38113;SDS011;23926;53.222;6.354;2023-03-08T06:30:46;4.65;;;1.88;;
38113;SDS011;23926;53.222;6.354;2023-03-08T06:33:20;2.53;;;1.95;;
38113;SDS011;23926;53.222;6.354;2023-03-08T06:36:00;4.70;;;1.92;;
38113;SDS011;23926;53.222;6.354;2023-03-08T06:38:27;2.83;;;1.60;;
38113;SDS011;23926;53.222;6.354;2023-03-08T06:40:54;1.92;;;1.35;;
38113;SDS011;23926;53.222;6.354;2023-03-08T06:43:19;3.42;;;1.63;;
38113;SDS011;23926;53.222;6.354;2023-03-08T06:45:45;2.97;;;1.85;;
38113;SDS011;23926;53.222;6.354;2023-03-08T06:48:10;5.82;;;2.00;;
38113;SDS011;23926;53.222;6.354;2023-03-08T06:50:35;4.25;;;2.30;;
38113;SDS011;23926;53.222;6.354;2023-03-08T06:53:01;5.63;;;2.08;;
38113;SDS011;23926;53.222;6.354;2023-03-08T06:55:26;2.85;;;2.00;;
38113;SDS011;23926;53.222;6.354;2023-03-08T06:57:52;8.77;;;1.80;;
38113;SDS011;23926;53.222;6.354;2023-03-08T07:00:19;2.78;;;1.83;;
38113;SDS011;23926;53.222;6.354;2023-03-08T07:02:45;5.10;;;1.83;;
38113;SDS011;23926;53.222;6.354;2023-03-08T07:05:12;4.35;;;1.60;;
38113;SDS011;23926;53.222;6.354;2023-03-08T07:07:38;4.28;;;2.05;;
38113;SDS011;23926;53.222;6.354;2023-03-08T07:10:04;2.28;;;1.17;;
38113;SDS011;23926;53.222;6.354;2023-03-08T07:12:30;3.70;;;1.23;;
38113;SDS011;23926;53.222;6.354;2023-03-08T07:14:56;2.03;;;1.67;;
38113;SDS011;23926;53.222;6.354;2023-03-08T07:17:22;6.25;;;1.67;;
38113;SDS011;23926;53.222;6.354;2023-03-08T07:19:48;3.95;;;1.80;;
38113;SDS011;23926;53.222;6.354;2023-03-08T07:22:13;2.67;;;1.70;;
38113;SDS011;23926;53.222;6.354;2023-03-08T07:24:39;5.50;;;1.80;;
38113;SDS011;23926;53.222;6.354;2023-03-08T07:27:04;6.00;;;2.15;;
38113;SDS011;23926;53.222;6.354;2023-03-08T07:29:30;2.95;;;1.42;;
38113;SDS011;23926;53.222;6.354;2023-03-08T07:31:55;4.20;;;1.50;;
38113;SDS011;23926;53.222;6.354;2023-03-08T07:34:21;4.07;;;1.90;;
38113;SDS011;23926;53.222;6.354;2023-03-08T07:36:46;2.15;;;1.65;;
38113;SDS011;23926;53.222;6.354;2023-03-08T07:39:11;6.85;;;2.58;;
38113;SDS011;23926;53.222;6.354;2023-03-08T07:41:37;5.18;;;2.85;;
38113;SDS011;23926;53.222;6.354;2023-03-08T07:44:02;4.13;;;1.63;;
38113;SDS011;23926;53.222;6.354;2023-03-08T07:46:28;5.72;;;2.05;;
38113;SDS011;23926;53.222;6.354;2023-03-08T07:48:54;2.53;;;1.70;;
38113;SDS011;23926;53.222;6.354;2023-03-08T07:51:20;2.10;;;1.73;;
38113;SDS011;23926;53.222;6.354;2023-03-08T07:53:45;3.55;;;1.88;;
38113;SDS011;23926;53.222;6.354;2023-03-08T07:56:10;5.15;;;2.55;;
38113;SDS011;23926;53.222;6.354;2023-03-08T07:58:36;2.42;;;1.75;;
38113;SDS011;23926;53.222;6.354;2023-03-08T08:01:11;3.20;;;2.50;;
38113;SDS011;23926;53.222;6.354;2023-03-08T08:03:38;7.97;;;3.30;;
38113;SDS011;23926;53.222;6.354;2023-03-08T08:06:05;5.57;;;2.28;;
38113;SDS011;23926;53.222;6.354;2023-03-08T08:08:31;4.50;;;2.53;;
38113;SDS011;23926;53.222;6.354;2023-03-08T08:10:57;7.35;;;2.53;;
38113;SDS011;23926;53.222;6.354;2023-03-08T08:13:23;2.28;;;1.92;;
38113;SDS011;23926;53.222;6.354;2023-03-08T08:16:01;2.67;;;2.05;;
38113;SDS011;23926;53.222;6.354;2023-03-08T08:18:27;4.03;;;2.60;;
38113;SDS011;23926;53.222;6.354;2023-03-08T08:20:59;3.88;;;2.53;;
38113;SDS011;23926;53.222;6.354;2023-03-08T08:23:31;3.00;;;2.20;;
38113;SDS011;23926;53.222;6.354;2023-03-08T08:25:57;3.28;;;2.47;;
38113;SDS011;23926;53.222;6.354;2023-03-08T08:28:23;4.82;;;3.42;;
38113;SDS011;23926;53.222;6.354;2023-03-08T08:33:46;4.30;;;3.45;;
38113;SDS011;23926;53.222;6.354;2023-03-08T08:36:13;4.47;;;2.85;;
38113;SDS011;23926;53.222;6.354;2023-03-08T08:38:40;3.33;;;2.58;;
38113;SDS011;23926;53.222;6.354;2023-03-08T08:41:08;2.67;;;2.22;;
38113;SDS011;23926;53.222;6.354;2023-03-08T08:43:34;11.85;;;7.35;;
38113;SDS011;23926;53.222;6.354;2023-03-08T08:46:00;8.30;;;6.07;;
38113;SDS011;23926;53.222;6.354;2023-03-08T08:48:27;9.18;;;5.40;;
38113;SDS011;23926;53.222;6.354;2023-03-08T08:50:53;2.88;;;2.17;;
38113;SDS011;23926;53.222;6.354;2023-03-08T08:53:19;4.63;;;3.10;;
38113;SDS011;23926;53.222;6.354;2023-03-08T08:55:45;5.03;;;3.50;;
38113;SDS011;23926;53.222;6.354;2023-03-08T08:58:11;4.63;;;3.00;;
38113;SDS011;23926;53.222;6.354;2023-03-08T09:00:37;2.97;;;2.65;;
38113;SDS011;23926;53.222;6.354;2023-03-08T09:03:03;8.25;;;5.50;;
38113;SDS011;23926;53.222;6.354;2023-03-08T09:05:29;6.72;;;4.15;;
38113;SDS011;23926;53.222;6.354;2023-03-08T09:07:56;6.15;;;4.82;;
38113;SDS011;23926;53.222;6.354;2023-03-08T09:10:23;4.70;;;3.25;;
38113;SDS011;23926;53.222;6.354;2023-03-08T09:12:49;5.20;;;4.22;;
38113;SDS011;23926;53.222;6.354;2023-03-08T09:15:14;13.18;;;7.60;;
38113;SDS011;23926;53.222;6.354;2023-03-08T09:17:40;5.65;;;4.63;;
38113;SDS011;23926;53.222;6.354;2023-03-08T09:20:05;9.30;;;6.50;;
38113;SDS011;23926;53.222;6.354;2023-03-08T09:22:35;6.82;;;4.38;;
38113;SDS011;23926;53.222;6.354;2023-03-08T09:25:01;6.85;;;4.82;;
38113;SDS011;23926;53.222;6.354;2023-03-08T09:27:26;4.30;;;3.70;;
38113;SDS011;23926;53.222;6.354;2023-03-08T09:29:52;5.07;;;3.75;;
38113;SDS011;23926;53.222;6.354;2023-03-08T09:32:17;4.72;;;3.47;;
38113;SDS011;23926;53.222;6.354;2023-03-08T09:34:42;5.35;;;4.63;;
38113;SDS011;23926;53.222;6.354;2023-03-08T09:37:09;5.68;;;3.50;;
38113;SDS011;23926;53.222;6.354;2023-03-08T09:39:35;4.43;;;3.60;;
38113;SDS011;23926;53.222;6.354;2023-03-08T09:42:02;7.45;;;4.85;;
38113;SDS011;23926;53.222;6.354;2023-03-08T09:47:40;7.15;;;3.92;;
38113;SDS011;23926;53.222;6.354;2023-03-08T09:51:17;6.03;;;3.80;;
38113;SDS011;23926;53.222;6.354;2023-03-08T09:53:20;4.88;;;3.22;;
38113;SDS011;23926;53.222;6.354;2023-03-08T09:55:54;4.20;;;3.38;;
38113;SDS011;23926;53.222;6.354;2023-03-08T10:01:26;5.38;;;3.80;;
38113;SDS011;23926;53.222;6.354;2023-03-08T10:06:49;5.30;;;3.92;;
38113;SDS011;23926;53.222;6.354;2023-03-08T10:09:32;6.80;;;4.10;;
38113;SDS011;23926;53.222;6.354;2023-03-08T10:17:45;4.25;;;3.25;;
38113;SDS011;23926;53.222;6.354;2023-03-08T10:20:26;3.95;;;3.35;;
38113;SDS011;23926;53.222;6.354;2023-03-08T10:23:01;3.90;;;2.83;;
38113;SDS011;23926;53.222;6.354;2023-03-08T10:25:34;5.93;;;3.65;;
38113;SDS011;23926;53.222;6.354;2023-03-08T10:28:01;3.50;;;3.00;;
38113;SDS011;23926;53.222;6.354;2023-03-08T10:30:32;6.03;;;4.40;;
38113;SDS011;23926;53.222;6.354;2023-03-08T10:33:00;4.45;;;3.08;;
38113;SDS011;23926;53.222;6.354;2023-03-08T10:35:34;5.80;;;2.80;;
38113;SDS011;23926;53.222;6.354;2023-03-08T10:38:02;3.70;;;3.10;;
38113;SDS011;23926;53.222;6.354;2023-03-08T10:40:29;7.10;;;3.90;;
38113;SDS011;23926;53.222;6.354;2023-03-08T10:42:56;6.15;;;3.83;;
38113;SDS011;23926;53.222;6.354;2023-03-08T10:45:28;6.80;;;3.70;;
38113;SDS011;23926;53.222;6.354;2023-03-08T10:47:55;3.60;;;2.33;;
38113;SDS011;23926;53.222;6.354;2023-03-08T10:50:36;2.60;;;2.40;;
38113;SDS011;23926;53.222;6.354;2023-03-08T10:53:23;5.15;;;2.90;;
38113;SDS011;23926;53.222;6.354;2023-03-08T10:55:49;3.42;;;2.53;;
38113;SDS011;23926;53.222;6.354;2023-03-08T10:58:27;3.50;;;2.55;;
38113;SDS011;23926;53.222;6.354;2023-03-08T11:00:54;3.13;;;2.40;;
38113;SDS011;23926;53.222;6.354;2023-03-08T11:03:21;3.35;;;2.33;;
38113;SDS011;23926;53.222;6.354;2023-03-08T11:08:49;4.72;;;2.50;;
38113;SDS011;23926;53.222;6.354;2023-03-08T11:11:19;2.33;;;2.13;;
38113;SDS011;23926;53.222;6.354;2023-03-08T11:13:46;5.35;;;2.10;;
38113;SDS011;23926;53.222;6.354;2023-03-08T11:32:34;7.30;;;2.20;;
38113;SDS011;23926;53.222;6.354;2023-03-08T11:38:34;4.97;;;2.00;;
38113;SDS011;23926;53.222;6.354;2023-03-08T11:54:16;3.83;;;2.05;;
38113;SDS011;23926;53.222;6.354;2023-03-08T11:56:53;3.03;;;2.03;;
38113;SDS011;23926;53.222;6.354;2023-03-08T12:02:15;2.15;;;2.00;;
38113;SDS011;23926;53.222;6.354;2023-03-08T12:04:44;4.10;;;2.30;;
38113;SDS011;23926;53.222;6.354;2023-03-08T12:10:02;2.78;;;2.20;;
38113;SDS011;23926;53.222;6.354;2023-03-08T12:12:39;7.55;;;2.20;;
38113;SDS011;23926;53.222;6.354;2023-03-08T12:18:00;6.45;;;2.42;;
38113;SDS011;23926;53.222;6.354;2023-03-08T12:20:38;2.95;;;2.15;;
38113;SDS011;23926;53.222;6.354;2023-03-08T12:23:12;3.55;;;1.90;;
38113;SDS011;23926;53.222;6.354;2023-03-08T12:25:49;3.13;;;1.80;;
38113;SDS011;23926;53.222;6.354;2023-03-08T12:31:28;8.07;;;2.05;;
38113;SDS011;23926;53.222;6.354;2023-03-08T12:33:57;4.63;;;1.88;;
38113;SDS011;23926;53.222;6.354;2023-03-08T12:36:41;8.27;;;1.98;;
38113;SDS011;23926;53.222;6.354;2023-03-08T12:42:12;5.20;;;1.73;;
38113;SDS011;23926;53.222;6.354;2023-03-08T12:44:40;1.75;;;1.65;;
38113;SDS011;23926;53.222;6.354;2023-03-08T12:49:42;3.45;;;2.00;;
38113;SDS011;23926;53.222;6.354;2023-03-08T12:54:41;5.18;;;1.85;;
38113;SDS011;23926;53.222;6.354;2023-03-08T12:57:14;8.38;;;2.63;;
38113;SDS011;23926;53.222;6.354;2023-03-08T12:59:45;3.50;;;2.17;;
38113;SDS011;23926;53.222;6.354;2023-03-08T13:02:30;6.90;;;2.03;;
38113;SDS011;23926;53.222;6.354;2023-03-08T13:05:01;4.90;;;1.88;;
38113;SDS011;23926;53.222;6.354;2023-03-08T13:07:59;3.10;;;1.85;;
38113;SDS011;23926;53.222;6.354;2023-03-08T13:10:36;3.30;;;1.83;;
38113;SDS011;23926;53.222;6.354;2023-03-08T13:15:36;3.83;;;1.70;;
38113;SDS011;23926;53.222;6.354;2023-03-08T13:18:10;11.20;;;2.30;;
38113;SDS011;23926;53.222;6.354;2023-03-08T13:28:31;7.85;;;3.70;;
38113;SDS011;23926;53.222;6.354;2023-03-08T13:31:18;2.53;;;1.50;;
38113;SDS011;23926;53.222;6.354;2023-03-08T13:33:47;3.63;;;1.98;;
38113;SDS011;23926;53.222;6.354;2023-03-08T13:36:27;4.25;;;1.50;;
38113;SDS011;23926;53.222;6.354;2023-03-08T13:44:00;4.38;;;1.75;;
38113;SDS011;23926;53.222;6.354;2023-03-08T13:46:27;2.55;;;1.67;;
38113;SDS011;23926;53.222;6.354;2023-03-08T13:48:53;4.78;;;1.70;;
38113;SDS011;23926;53.222;6.354;2023-03-08T13:51:20;9.85;;;2.10;;
38113;SDS011;23926;53.222;6.354;2023-03-08T13:53:50;5.07;;;2.53;;
38113;SDS011;23926;53.222;6.354;2023-03-08T13:56:25;6.93;;;1.75;;
38113;SDS011;23926;53.222;6.354;2023-03-08T13:58:52;4.40;;;1.50;;
38113;SDS011;23926;53.222;6.354;2023-03-08T14:01:24;6.38;;;2.67;;
38113;SDS011;23926;53.222;6.354;2023-03-08T14:03:51;7.22;;;2.20;;
38113;SDS011;23926;53.222;6.354;2023-03-08T14:06:23;7.30;;;1.92;;
38113;SDS011;23926;53.222;6.354;2023-03-08T14:08:54;4.88;;;1.80;;
38113;SDS011;23926;53.222;6.354;2023-03-08T14:11:25;4.30;;;1.60;;
38113;SDS011;23926;53.222;6.354;2023-03-08T14:13:53;5.43;;;1.80;;
38113;SDS011;23926;53.222;6.354;2023-03-08T14:16:25;3.22;;;2.10;;
38113;SDS011;23926;53.222;6.354;2023-03-08T14:18:52;3.58;;;1.77;;
38113;SDS011;23926;53.222;6.354;2023-03-08T14:21:19;3.45;;;1.60;;
38113;SDS011;23926;53.222;6.354;2023-03-08T14:23:51;4.32;;;1.88;;
38113;SDS011;23926;53.222;6.354;2023-03-08T14:26:26;2.40;;;1.30;;
38113;SDS011;23926;53.222;6.354;2023-03-08T14:29:02;2.80;;;1.52;;
38113;SDS011;23926;53.222;6.354;2023-03-08T14:31:28;7.22;;;2.05;;
38113;SDS011;23926;53.222;6.354;2023-03-08T14:34:03;4.20;;;1.90;;
38113;SDS011;23926;53.222;6.354;2023-03-08T14:36:45;2.65;;;1.58;;
38113;SDS011;23926;53.222;6.354;2023-03-08T14:39:31;6.47;;;1.40;;
38113;SDS011;23926;53.222;6.354;2023-03-08T14:42:07;2.50;;;1.65;;
38113;SDS011;23926;53.222;6.354;2023-03-08T14:44:35;3.03;;;1.85;;
38113;SDS011;23926;53.222;6.354;2023-03-08T14:52:18;7.60;;;1.83;;
38113;SDS011;23926;53.222;6.354;2023-03-08T14:54:44;6.28;;;1.60;;
38113;SDS011;23926;53.222;6.354;2023-03-08T14:57:21;4.05;;;1.58;;
38113;SDS011;23926;53.222;6.354;2023-03-08T14:59:48;5.03;;;1.73;;
38113;SDS011;23926;53.222;6.354;2023-03-08T15:02:15;3.20;;;1.60;;
38113;SDS011;23926;53.222;6.354;2023-03-08T15:04:42;2.03;;;1.60;;
38113;SDS011;23926;53.222;6.354;2023-03-08T15:07:19;6.32;;;1.88;;
38113;SDS011;23926;53.222;6.354;2023-03-08T15:09:47;2.67;;;1.67;;
38113;SDS011;23926;53.222;6.354;2023-03-08T15:12:14;2.83;;;1.70;;
38113;SDS011;23926;53.222;6.354;2023-03-08T15:14:40;3.40;;;1.80;;
38113;SDS011;23926;53.222;6.354;2023-03-08T15:17:05;3.90;;;1.83;;
38113;SDS011;23926;53.222;6.354;2023-03-08T15:19:31;2.28;;;1.77;;
38113;SDS011;23926;53.222;6.354;2023-03-08T15:21:56;7.20;;;2.00;;
38113;SDS011;23926;53.222;6.354;2023-03-08T15:24:22;3.58;;;2.03;;
38113;SDS011;23926;53.222;6.354;2023-03-08T15:26:48;4.47;;;1.90;;
38113;SDS011;23926;53.222;6.354;2023-03-08T15:29:32;6.93;;;2.13;;
38113;SDS011;23926;53.222;6.354;2023-03-08T15:32:00;2.10;;;1.40;;
38113;SDS011;23926;53.222;6.354;2023-03-08T15:34:26;4.72;;;1.52;;
38113;SDS011;23926;53.222;6.354;2023-03-08T15:36:52;3.90;;;1.83;;
38113;SDS011;23926;53.222;6.354;2023-03-08T15:39:19;2.28;;;1.75;;
38113;SDS011;23926;53.222;6.354;2023-03-08T15:41:45;2.20;;;1.50;;
38113;SDS011;23926;53.222;6.354;2023-03-08T15:44:10;4.30;;;1.60;;
38113;SDS011;23926;53.222;6.354;2023-03-08T15:46:36;3.55;;;1.40;;
38113;SDS011;23926;53.222;6.354;2023-03-08T15:49:02;6.13;;;1.55;;
38113;SDS011;23926;53.222;6.354;2023-03-08T15:51:29;3.08;;;1.23;;
38113;SDS011;23926;53.222;6.354;2023-03-08T15:53:56;2.70;;;1.58;;
38113;SDS011;23926;53.222;6.354;2023-03-08T15:56:22;2.10;;;1.40;;
38113;SDS011;23926;53.222;6.354;2023-03-08T15:58:49;3.97;;;1.65;;
38113;SDS011;23926;53.222;6.354;2023-03-08T16:01:15;3.00;;;1.40;;
38113;SDS011;23926;53.222;6.354;2023-03-08T16:03:41;6.05;;;1.83;;
38113;SDS011;23926;53.222;6.354;2023-03-08T16:06:10;1.65;;;1.33;;
38113;SDS011;23926;53.222;6.354;2023-03-08T16:08:37;3.03;;;2.40;;
38113;SDS011;23926;53.222;6.354;2023-03-08T16:11:10;6.80;;;2.33;;
38113;SDS011;23926;53.222;6.354;2023-03-08T16:13:37;5.38;;;2.38;;
38113;SDS011;23926;53.222;6.354;2023-03-08T16:16:02;7.95;;;3.05;;
38113;SDS011;23926;53.222;6.354;2023-03-08T16:18:29;6.75;;;3.33;;
38113;SDS011;23926;53.222;6.354;2023-03-08T16:20:55;3.08;;;2.33;;
38113;SDS011;23926;53.222;6.354;2023-03-08T16:23:22;4.50;;;2.53;;
38113;SDS011;23926;53.222;6.354;2023-03-08T16:25:57;3.97;;;3.13;;
38113;SDS011;23926;53.222;6.354;2023-03-08T16:28:23;3.28;;;2.60;;
38113;SDS011;23926;53.222;6.354;2023-03-08T16:30:48;6.45;;;3.42;;